Darya Jyoti — VRGM9 — position and weather

sailwx.info

Track history (hours):
 
Tides and Currents Weather Stations Pressure Air Temp Water Temp Dewpoint Dewpoint Depression Visibility Wind Speed Wind Dir Waves Ship Positions

Darya Jyoti

Last reported at 2015-May-14 12:30 UTC. Time now 2015-May-23 02:45 UTC.
Position N 30°20' E 122°50'.
Warning: this ship's position is 8 days out of date.

Length 229 m; draft 6 m.

Type: Cargo ship. MMSI: 477742700.

Date/timePositionNaut miles runAvg speedWind from/ knotsBaromVisibWave heightAir tempDewpointWater temp
2015-May-14 12:30N 30°20' E 122°50'1212.2
2015-May-14 11:29N 30°22' E 122°36'1111.4
2015-May-14 10:32N 30°22' E 122°24'1110.7
2015-May-14 09:29N 30°22' E 122°10'1111.3
2015-May-14 08:29N 30°23' E 121°57'9 9.5
2015-May-14 07:33N 30°18' E 121°49'1211.6
2015-May-14 06:33N 30°13' E 122°01'0 0.2
2015-May-14 05:27N 30°13' E 122°02'4 4.6
2015-May-14 04:33N 30°16' E 122°05'0 0.0
2015-May-14 03:33N 30°16' E 122°05'0 0.1
2015-May-14 02:31N 30°16' E 122°05'0 0.0
2015-May-14 01:33N 30°16' E 122°05'1 0.0
2015-May-12 22:21N 30°17' E 122°05'0 0.0
2015-May-12 20:27N 30°17' E 122°05'  
2015-May-08 10:07N 30°17' E 122°05'0 0.0
2015-May-08 01:22N 30°17' E 122°05'0 0.0
2015-May-08 00:31N 30°17' E 122°05'0 0.0
2015-May-07 12:31N 30°17' E 122°05'0 0.0
2015-May-07 11:16N 30°17' E 122°05'0 0.0
2015-May-07 10:31N 30°17' E 122°05'0 0.0
2015-May-07 09:10N 30°17' E 122°05'0 0.0
2015-May-07 02:31N 30°17' E 122°05'0 0.0
2015-May-06 21:04N 30°17' E 122°05'0 0.0
2015-May-06 12:31N 30°17' E 122°05'0 0.0
2015-May-06 09:19N 30°17' E 122°05'0 0.0
2015-May-05 18:19N 30°17' E 122°05'0 0.0
2015-May-05 14:13N 30°17' E 122°05'0 0.0
2015-May-05 13:07N 30°17' E 122°05'0 0.0
2015-May-05 12:31N 30°17' E 122°05'0 0.0
2015-May-05 11:13N 30°17' E 122°05'0 0.0
2015-May-05 10:25N 30°17' E 122°05'0 0.0
2015-May-05 07:31N 30°17' E 122°05'0 0.0
2015-May-04 14:31N 30°17' E 122°05'  
Track history (hours):
 
Tides and Currents Weather Stations Pressure Air Temp Water Temp Dewpoint Dewpoint Depression Visibility Wind Speed Wind Dir Waves Ship Positions

Darya Jyoti

Last reported at 2015-May-14 12:30 UTC. Time now 2015-May-23 02:45 UTC.
Position N 30°20' E 122°50'.
Warning: this ship's position is 8 days out of date.

Length 229 m; draft 6 m.

Type: Cargo ship. MMSI: 477742700.

Date/timePositionNaut miles runAvg speedWind from/ knotsBaromVisibWave heightAir tempDewpointWater temp
2015-May-14 12:30N 30°20' E 122°50'1212.2
2015-May-14 11:29N 30°22' E 122°36'1111.4
2015-May-14 10:32N 30°22' E 122°24'1110.7
2015-May-14 09:29N 30°22' E 122°10'1111.3
2015-May-14 08:29N 30°23' E 121°57'9 9.5
2015-May-14 07:33N 30°18' E 121°49'1211.6
2015-May-14 06:33N 30°13' E 122°01'0 0.2
2015-May-14 05:27N 30°13' E 122°02'4 4.6
2015-May-14 04:33N 30°16' E 122°05'0 0.0
2015-May-14 03:33N 30°16' E 122°05'0 0.1
2015-May-14 02:31N 30°16' E 122°05'0 0.0
2015-May-14 01:33N 30°16' E 122°05'1 0.0
2015-May-12 22:21N 30°17' E 122°05'0 0.0
2015-May-12 20:27N 30°17' E 122°05'  
2015-May-08 10:07N 30°17' E 122°05'0 0.0
2015-May-08 01:22N 30°17' E 122°05'0 0.0
2015-May-08 00:31N 30°17' E 122°05'0 0.0
2015-May-07 12:31N 30°17' E 122°05'0 0.0
2015-May-07 11:16N 30°17' E 122°05'0 0.0
2015-May-07 10:31N 30°17' E 122°05'0 0.0
2015-May-07 09:10N 30°17' E 122°05'0 0.0
2015-May-07 02:31N 30°17' E 122°05'0 0.0
2015-May-06 21:04N 30°17' E 122°05'0 0.0
2015-May-06 12:31N 30°17' E 122°05'0 0.0
2015-May-06 09:19N 30°17' E 122°05'0 0.0
2015-May-05 18:19N 30°17' E 122°05'0 0.0
2015-May-05 14:13N 30°17' E 122°05'0 0.0
2015-May-05 13:07N 30°17' E 122°05'0 0.0
2015-May-05 12:31N 30°17' E 122°05'0 0.0
2015-May-05 11:13N 30°17' E 122°05'0 0.0
2015-May-05 10:25N 30°17' E 122°05'0 0.0
2015-May-05 07:31N 30°17' E 122°05'0 0.0
2015-May-04 14:31N 30°17' E 122°05'  

Dump ship's entire track history